Gosnells City, Australia

2:20 AM AWST on March 24, 2017 (GMT +0800)
Gosnells | | Change Station

Elev 39 ft 32.07 °S, 115.99 °E | Updated 45 seconds ago

Clear
Clear
60.4 °F
Feels Like 60.4 °F
N
0.8
Wind Variable Wind from South
Gusts 3.1 mph

Today
High -- | Low -- °F
--% Chance of Precip.
Yesterday
High -- | Low -- °F
Precip. -- in
Pressure 29.95 in
Visibility 6.2 miles
Clouds Few 500 ft
Dew Point 60 °F
Humidity 99%
Rainfall 0.00 in
Snow Depth Not available.
6:21 AM 6:22 PM
Waning Crescent, 21% visible
METAR YPPH 231800Z 19005KT 9999 FEW005 16/16 Q1014 FM1800 18005KT 9999 BKN005 FM1900 18005KT 9999 BKN003 FM1930 18003KT 0300 FG BKN002
Pressure 29.95 in
Visibility 6.2 miles
Clouds Few 500 ft
Dew Point 60 °F
Humidity 99%
Rainfall 0.00 in
Snow Depth Not available.
6:21 AM 6:22 PM
Waning Crescent, 21% visible
METAR YPPH 231800Z 19005KT 9999 FEW005 16/16 Q1014 FM1800 18005KT 9999 BKN005 FM1900 18005KT 9999 BKN003 FM1930 18003KT 0300 FG BKN002

Get Severe Weather Alerts

Thanks for signing up!

Be on the lookout for a verification email in your inbox.

You'll start receiving the daily forecast at 8 AM.

×

10-Day Weather Forecast

×

Almanac

Astronomy

Mar. 24, 2017 Rise Set
Actual Time
Civil Twilight
Nautical Twilight
Astronomical Twilight
Moon
Length of Visible Light
Length of Day
Tomorrow will be .
, % of the Moon is Illuminated

Today's Extremes

Country Highs Country Lows

Community

WunderPhotos

Upload Photos

1,962,540 photos uploaded!

WunderBlog® & News

Nearby

Air Quality

  Air Quality AQ Index Pollutant
Not available.

Snow Depth

Station Depth Elevation

Earthquake Activity

City Distance Mag. Time & Date
Minimum magnitude displayed is 2.5.

Earthquake Activity

City Distance Mag. Time & Date
Minimum magnitude displayed is 2.5.

Coastal Water Temperatures

Place Temperature

Stations

Nearby Weather Stations

Station Location Temp. Windchill Dew Point Humidity Wind Precip. Elev Updated Type